Cumberland, WI

9:31 PM CDT on September 30, 2016 (GMT -0500)
Cumberland Municipal

Weather History for KUBE - April, 2013

Change the Weather History Date:

Sunday, April 7, 2013

  Actual Average (KRPD) Record (KRPD)
Temperature  
Mean Temperature 34 °F -  
Max Temperature 37 °F 48 °F 68 °F (1999)
Min Temperature 32 °F 29 °F 5 °F (1999)
Degree Days  
Heating Degree Days 30    
Moisture  
Dew Point 32 °F    
Average Humidity 91    
Maximum Humidity 100    
Minimum Humidity 81    
Precipitation  
Precipitation 0.01 in - - ()
Sea Level Pressure  
Sea Level Pressure 29.84 in    
Wind  
Wind Speed 7 mph (North)    
Max Wind Speed 14 mph    
Max Gust Speed 16 mph    
Visibility 9 miles    
Events Rain    
Averages and records for this station are not official NWS values.
T = Trace of Precipitation, MM = Missing Value Source: NWS Daily Summary

Daily Weather History Graph

Daily Weather History Graph

Search for Another Location

Airport or City:

Trip Planner

Search our weather history database for the weather conditions in past years. The results will help you decide how hot, cold, wet, or windy it might be!

Date:

Astronomy

Apr. 07, 2013 Rise Set
Actual Time 6:36 AM CDT 7:44 PM CDT
Civil Twilight 6:06 AM CDT 8:14 PM CDT
Nautical Twilight 5:29 AM CDT 8:51 PM CDT
Astronomical Twilight 4:51 AM CDT 9:29 PM CDT
Moon 5:01 AM CDT (4/7) 5:10 PM CDT (4/7)
Length of Visible Light 14h 08m
Length of Day
13h 07m
Waning Crescent, 8% of the Moon is Illuminated
Apr 7
Waning Crescent
Apr 10
New
Apr 18
First Quarter
Apr 25
Full
May 2
Last Quarter

Hourly Weather History & Observations

Time (CDT) Temp. Windchill Dew Point Humidity Pressure Visibility Wind Dir Wind Speed Gust Speed Precip Events Conditions
12:15 AM 32.0 °F 23.6 °F 32.0 °F 100% 29.69 in 10.0 mi NW 10.4 mph - N/A   Overcast
12:35 AM 32.0 °F 24.2 °F 32.0 °F 100% 29.70 in 7.0 mi NW 9.2 mph - N/A   Overcast
12:55 AM 32.0 °F 23.0 °F 32.0 °F 100% 29.71 in 7.0 mi NW 11.5 mph - N/A   Overcast
1:15 AM 32.0 °F 23.6 °F 32.0 °F 100% 29.71 in 10.0 mi NW 10.4 mph - N/A   Overcast
1:35 AM 32.0 °F 23.6 °F 32.0 °F 100% 29.71 in 10.0 mi NNW 10.4 mph - N/A   Overcast
1:55 AM 32.0 °F 23.6 °F 32.0 °F 100% 29.72 in 10.0 mi NW 10.4 mph - N/A   Overcast
2:15 AM 32.0 °F 22.1 °F 32.0 °F 100% 29.72 in 7.0 mi NW 13.8 mph - N/A   Overcast
2:35 AM 32.0 °F 23.6 °F 32.0 °F 100% 29.73 in 7.0 mi NW 10.4 mph 16.1 mph N/A   Overcast
2:55 AM 32.0 °F 24.2 °F 32.0 °F 100% 29.74 in 7.0 mi NW 9.2 mph - N/A   Overcast
3:15 AM 32.0 °F 24.8 °F 32.0 °F 100% 29.73 in 7.0 mi NNW 8.1 mph - N/A   Overcast
3:35 AM 32.0 °F 23.6 °F 32.0 °F 100% 29.74 in 7.0 mi NW 10.4 mph - N/A   Overcast
3:55 AM 32.0 °F 23.6 °F 32.0 °F 100% 29.74 in 7.0 mi NW 10.4 mph - N/A   Overcast
4:15 AM 32.0 °F 24.2 °F 32.0 °F 100% 29.74 in 7.0 mi NNW 9.2 mph - N/A   Overcast
4:35 AM 32.0 °F 24.8 °F 32.0 °F 100% 29.75 in 7.0 mi NW 8.1 mph - N/A   Overcast
4:55 AM 32.0 °F 24.2 °F 32.0 °F 100% 29.76 in 5.0 mi NNW 9.2 mph - N/A   Overcast
5:15 AM 32.0 °F 23.6 °F 32.0 °F 100% 29.77 in 7.0 mi NNW 10.4 mph - N/A   Overcast
5:35 AM 32.0 °F 25.6 °F 32.0 °F 100% 29.78 in 7.0 mi NW 6.9 mph - N/A   Overcast
5:55 AM 32.0 °F 26.4 °F 32.0 °F 100% 29.80 in 10.0 mi NW 5.8 mph - N/A   Overcast
6:15 AM 32.0 °F 26.4 °F 32.0 °F 100% 29.81 in 10.0 mi NW 5.8 mph - N/A   Overcast
6:35 AM 32.0 °F 25.6 °F 32.0 °F 100% 29.82 in 7.0 mi NW 6.9 mph - N/A   Overcast
6:55 AM 32.0 °F 25.6 °F 32.0 °F 100% 29.83 in 10.0 mi NW 6.9 mph - N/A   Overcast
7:15 AM 32.0 °F 26.4 °F 32.0 °F 100% 29.84 in 10.0 mi NW 5.8 mph - N/A   Overcast
7:35 AM 32.0 °F 25.6 °F 32.0 °F 100% 29.84 in 10.0 mi NW 6.9 mph - N/A   Overcast
7:55 AM 32.0 °F 24.8 °F 32.0 °F 100% 29.84 in 10.0 mi NNW 8.1 mph - N/A   Overcast
8:15 AM 33.8 °F 29.6 °F 32.0 °F 93% 29.84 in 10.0 mi NNW 4.6 mph - N/A   Overcast
8:35 AM 33.8 °F 28.6 °F 32.0 °F 93% 29.86 in 10.0 mi NW 5.8 mph - N/A   Overcast
8:55 AM 33.8 °F 29.6 °F 32.0 °F 93% 29.87 in 10.0 mi NNW 4.6 mph - N/A   Overcast
9:15 AM 33.8 °F 29.6 °F 30.2 °F 87% 29.87 in 10.0 mi North 4.6 mph - N/A   Overcast
9:35 AM 33.8 °F 28.6 °F 30.2 °F 87% 29.88 in 10.0 mi North 5.8 mph - N/A   Overcast
9:55 AM 33.8 °F 29.6 °F 30.2 °F 87% 29.89 in 10.0 mi North 4.6 mph - N/A   Overcast
10:15 AM 33.8 °F 30.8 °F 30.2 °F 87% 29.89 in 10.0 mi NNW 3.5 mph - N/A   Overcast
10:35 AM 33.8 °F - 30.2 °F 87% 29.90 in 10.0 mi Calm Calm - N/A   Overcast
10:55 AM 33.8 °F 29.6 °F 30.2 °F 87% 29.91 in 10.0 mi NNW 4.6 mph - N/A   Overcast
11:15 AM 33.8 °F 30.8 °F 30.2 °F 87% 29.91 in 10.0 mi NNE 3.5 mph - N/A   Overcast
11:35 AM 33.8 °F - 30.2 °F 87% 29.92 in 10.0 mi Calm Calm - N/A   Overcast
11:55 AM 33.8 °F - 30.2 °F 87% 29.93 in 10.0 mi Calm Calm - N/A   Overcast
12:15 PM 33.8 °F - 30.2 °F 87% 29.93 in 10.0 mi Calm Calm - N/A   Overcast
12:35 PM 33.8 °F - 30.2 °F 87% 29.93 in 10.0 mi Calm Calm - N/A   Overcast
12:55 PM 33.8 °F - 30.2 °F 87% 29.93 in 10.0 mi Calm Calm - N/A   Overcast
1:15 PM 33.8 °F - 30.2 °F 87% 29.93 in 10.0 mi Calm Calm - N/A   Overcast
1:35 PM 33.8 °F - 30.2 °F 87% 29.92 in 10.0 mi Calm Calm - N/A   Overcast
1:55 PM 35.6 °F - 30.2 °F 81% 29.92 in 10.0 mi Calm Calm - N/A   Overcast
2:15 PM 35.6 °F 32.8 °F 30.2 °F 81% 29.92 in 10.0 mi South 3.5 mph - N/A   Overcast
2:35 PM 35.6 °F 31.7 °F 32.0 °F 87% 29.91 in 10.0 mi South 4.6 mph - N/A   Overcast
2:55 PM 35.6 °F 32.8 °F 32.0 °F 87% 29.89 in 10.0 mi SSW 3.5 mph - N/A   Overcast
3:15 PM 35.6 °F - 32.0 °F 87% 29.89 in 10.0 mi Calm Calm - N/A   Overcast
3:35 PM 35.6 °F 29.9 °F 32.0 °F 87% 29.88 in 10.0 mi SE 6.9 mph - N/A   Overcast
3:55 PM 35.6 °F 29.9 °F 30.2 °F 81% 29.87 in 10.0 mi SE 6.9 mph - N/A   Overcast
4:15 PM 35.6 °F 30.7 °F 30.2 °F 81% 29.87 in 10.0 mi ESE 5.8 mph - N/A   Overcast
4:35 PM 35.6 °F 29.9 °F 32.0 °F 87% 29.87 in 10.0 mi South 6.9 mph - N/A   Overcast
4:55 PM 37.4 °F 32.1 °F 32.0 °F 81% 29.87 in 10.0 mi South 6.9 mph - N/A   Overcast
5:15 PM 37.4 °F 32.8 °F 32.0 °F 81% 29.86 in 10.0 mi SSE 5.8 mph - N/A   Overcast
5:35 PM 35.6 °F 29.9 °F 32.0 °F 87% 29.86 in 10.0 mi SSE 6.9 mph - N/A   Scattered Clouds
5:55 PM 37.4 °F 31.4 °F 32.0 °F 81% 29.86 in 10.0 mi South 8.1 mph - N/A   Clear
6:15 PM 37.4 °F 31.4 °F 32.0 °F 81% 29.86 in 10.0 mi SSE 8.1 mph - N/A   Clear
6:35 PM 35.6 °F 29.2 °F 32.0 °F 87% 29.87 in 10.0 mi SSE 8.1 mph - N/A   Scattered Clouds
6:55 PM 37.4 °F 32.8 °F 32.0 °F 81% 29.85 in 10.0 mi SE 5.8 mph - N/A   Scattered Clouds
7:15 PM 35.6 °F 29.9 °F 32.0 °F 87% 29.86 in 10.0 mi SSE 6.9 mph - N/A   Clear
7:35 PM 35.6 °F 30.7 °F 32.0 °F 87% 29.86 in 10.0 mi SE 5.8 mph - N/A   Clear
7:55 PM 35.6 °F 32.8 °F 32.0 °F 87% 29.86 in 10.0 mi ESE 3.5 mph - N/A   Clear
8:15 PM 35.6 °F 32.8 °F 32.0 °F 87% 29.86 in 10.0 mi ESE 3.5 mph - N/A   Clear
8:35 PM 33.8 °F 29.6 °F 32.0 °F 93% 29.86 in 10.0 mi ESE 4.6 mph - N/A   Clear
8:55 PM 35.6 °F 31.7 °F 32.0 °F 87% 29.86 in 10.0 mi ESE 4.6 mph - N/A   Clear
9:15 PM 35.6 °F 31.7 °F 32.0 °F 87% 29.86 in 10.0 mi ESE 4.6 mph - N/A   Clear
9:35 PM 35.6 °F 30.7 °F 32.0 °F 87% 29.85 in 10.0 mi ESE 5.8 mph - N/A   Mostly Cloudy
9:55 PM 35.6 °F 29.2 °F 32.0 °F 87% 29.85 in 10.0 mi ESE 8.1 mph - N/A   Overcast
10:15 PM 35.6 °F 29.9 °F 32.0 °F 87% 29.84 in 10.0 mi ESE 6.9 mph - N/A   Mostly Cloudy
10:35 PM 35.6 °F 31.7 °F 32.0 °F 87% 29.83 in 10.0 mi SE 4.6 mph - N/A   Mostly Cloudy
10:55 PM 35.6 °F 30.7 °F 32.0 °F 87% 29.82 in 10.0 mi ESE 5.8 mph - N/A   Overcast
11:15 PM 35.6 °F 29.9 °F 32.0 °F 87% 29.82 in 10.0 mi ESE 6.9 mph - N/A Rain Rain
11:35 PM 33.8 °F 29.6 °F 32.0 °F 93% 29.82 in 5.0 mi SE 4.6 mph - N/A Rain Light Rain
11:55 PM 33.8 °F 28.6 °F 32.0 °F 93% 29.83 in 7.0 mi ESE 5.8 mph - 0.01 in Rain Light Rain